Time;durP1;ratioP1;P1;durP2;ratioP2;P2;SDS_P1;SDS_P2;PMS_P1;PMS_P2;Temp;Humidity;BMP_temperature;BMP_pressure;BME280_temperature;BME280_humidity;BME280_pressure;Samples;Min_cycle;Max_cycle;Signal;HPM_P1;HPM_P2
2022/10/09 00:01:22;;;;;;;29.25;14.90;;;;;;;12.27;68.45;95603.47;5074340;28;20037;-76
2022/10/09 00:03:50;;;;;;;26.02;15.55;;;;;;;12.58;68.60;95657.31;5055030;28;20130;-76
2022/10/09 00:06:18;;;;;;;28.40;14.60;;;;;;;12.16;68.71;95585.97;5073544;28;20040;-76
2022/10/09 00:08:45;;;;;;;29.10;14.38;;;;;;;12.19;68.74;95583.56;5055756;28;20051;-76
2022/10/09 00:11:17;;;;;;;25.73;14.88;;;;;;;12.42;69.17;95631.84;5056929;28;20559;-75
2022/10/09 00:13:43;;;;;;;24.73;13.55;;;;;;;12.41;68.63;95625.75;5074794;28;20067;-75
2022/10/09 00:16:11;;;;;;;29.33;14.05;;;;;;;12.39;68.73;95625.22;5074363;28;20064;-75
2022/10/09 00:18:37;;;;;;;32.10;15.30;;;;;;;12.31;69.00;95610.63;5055623;28;20386;-75
2022/10/09 00:21:04;;;;;;;24.65;14.20;;;;;;;12.54;68.73;95642.97;5074022;28;20094;-75
2022/10/09 00:23:31;;;;;;;23.30;13.90;;;;;;;12.48;68.60;95639.53;5055753;28;20042;-76
2022/10/09 00:25:58;;;;;;;25.00;14.13;;;;;;;12.43;68.80;95628.13;5070922;28;20032;-76
2022/10/09 00:28:27;;;;;;;30.08;14.18;;;;;;;12.05;68.63;95576.47;5051293;28;20039;-76
2022/10/09 00:30:53;;;;;;;25.52;13.77;;;;;;;12.38;69.10;95627.06;5052095;28;20043;-76
2022/10/09 00:33:19;;;;;;;24.75;13.93;;;;;;;12.34;69.10;95625.25;5070770;28;20036;-75
2022/10/09 00:35:46;;;;;;;30.00;13.93;;;;;;;12.06;69.21;95586.78;5052212;28;20032;-76
2022/10/09 00:38:11;;;;;;;24.25;14.65;;;;;;;12.14;68.82;95610.16;5052129;28;20035;-76
2022/10/09 00:40:38;;;;;;;23.90;14.25;;;;;;;11.75;68.82;95543.59;5053247;28;20523;-76
2022/10/09 00:43:06;;;;;;;21.92;14.63;;;;;;;12.18;69.25;95613.88;5073382;28;20553;-76
2022/10/09 00:45:32;;;;;;;33.88;14.82;;;;;;;12.20;69.02;95614.41;5073249;28;20048;-75
2022/10/09 00:48:03;;;;;;;30.13;14.68;;;;;;;12.17;69.12;95609.63;5074868;28;20716;-75
2022/10/09 00:50:41;;;;;;;28.27;14.50;;;;;;;12.16;69.23;95616.00;5054446;28;20394;-75
2022/10/09 00:53:09;;;;;;;28.20;15.93;;;;;;;12.16;69.26;95608.03;5055106;28;20035;-76
2022/10/09 00:55:36;;;;;;;37.22;15.30;;;;;;;12.16;69.21;95605.38;5055904;28;20121;-75
2022/10/09 00:58:02;;;;;;;27.02;14.88;;;;;;;11.64;69.62;95533.25;5074646;28;20806;-75
2022/10/09 01:00:27;;;;;;;22.75;13.52;;;;;;;12.14;69.41;95606.69;5075658;28;20028;-75
2022/10/09 01:02:53;;;;;;;25.73;15.63;;;;;;;11.97;69.46;95575.16;5075827;28;20040;-75
2022/10/09 01:05:26;;;;;;;19.98;14.23;;;;;;;11.98;69.43;95579.38;5076440;28;20490;-75
2022/10/09 01:08:04;;;;;;;32.60;14.57;;;;;;;11.72;69.23;95536.16;5072024;28;20039;-75
2022/10/09 01:10:40;;;;;;;27.52;14.75;;;;;;;12.10;69.19;95605.66;5060642;28;20411;-75
2022/10/09 01:13:26;;;;;;;24.90;14.40;;;;;;;12.08;69.12;95608.59;5042229;28;20043;-75
2022/10/09 01:15:55;;;;;;;27.33;15.13;;;;;;;12.04;69.38;95602.25;5042275;28;20032;-75
2022/10/09 01:18:45;;;;;;;29.95;14.02;;;;;;;12.03;69.68;95598.00;5061170;28;20032;-75
2022/10/09 01:21:11;;;;;;;26.20;14.55;;;;;;;12.01;69.71;95613.41;5076267;28;20089;-75
2022/10/09 01:23:58;;;;;;;25.67;14.38;;;;;;;12.04;69.87;95607.56;5063661;28;20028;-75
2022/10/09 01:26:42;;;;;;;30.73;15.13;;;;;;;11.98;69.86;95611.28;5061464;28;20029;-75
2022/10/09 01:29:10;;;;;;;30.05;14.25;;;;;;;11.94;69.64;95605.72;5060647;28;20039;-75
2022/10/09 01:31:42;;;;;;;26.25;14.40;;;;;;;11.30;69.75;95509.19;5042560;28;20406;-75
2022/10/09 01:34:12;;;;;;;26.92;14.07;;;;;;;11.75;69.24;95580.78;5042475;28;20056;-76
2022/10/09 01:36:39;;;;;;;22.88;14.20;;;;;;;11.65;69.21;95561.41;5042357;28;20786;-76
2022/10/09 01:39:07;;;;;;;28.75;14.15;;;;;;;11.84;69.65;95594.31;5060906;28;20101;-76
2022/10/09 01:41:33;;;;;;;25.00;14.27;;;;;;;11.89;69.59;95604.97;5060991;28;20508;-75
2022/10/09 01:43:58;;;;;;;24.48;14.57;;;;;;;11.73;69.93;95585.56;5061591;28;20101;-75
2022/10/09 01:46:30;;;;;;;24.35;14.80;;;;;;;11.84;69.65;95604.94;5041553;28;20133;-74
2022/10/09 01:49:07;;;;;;;27.40;15.38;;;;;;;11.82;69.21;95612.41;5042132;28;20477;-75
2022/10/09 01:51:54;;;;;;;24.38;15.40;;;;;;;11.70;69.66;95612.66;5059958;28;20107;-74
2022/10/09 01:54:36;;;;;;;21.35;13.70;;;;;;;11.73;70.10;95614.00;5064576;28;20415;-75
2022/10/09 01:57:05;;;;;;;22.38;14.00;;;;;;;11.40;69.78;95560.41;5045438;28;20582;-75
2022/10/09 01:59:38;;;;;;;27.77;15.10;;;;;;;11.49;69.76;95580.06;5061589;28;20040;-74
2022/10/09 02:02:05;;;;;;;21.42;12.68;;;;;;;11.48;69.86;95583.75;5060515;28;20028;-75
2022/10/09 02:04:31;;;;;;;19.23;13.32;;;;;;;11.34;69.80;95563.34;5057893;28;20040;-75
2022/10/09 02:06:57;;;;;;;21.65;13.60;;;;;;;11.65;69.97;95622.53;5040792;28;20085;-75
2022/10/09 02:09:24;;;;;;;32.10;13.38;;;;;;;11.56;69.90;95601.81;5059231;28;20115;-75
2022/10/09 02:11:54;;;;;;;30.38;13.57;;;;;;;11.48;70.21;95597.03;5040833;28;20524;-75
2022/10/09 02:14:20;;;;;;;32.97;14.73;;;;;;;11.57;69.84;95622.00;5042199;28;20060;-75
2022/10/09 02:16:51;;;;;;;25.27;14.60;;;;;;;11.37;70.20;95598.13;5042021;28;20673;-75
2022/10/09 02:19:33;;;;;;;25.88;13.32;;;;;;;11.36;70.11;95593.09;5060618;28;20802;-75
2022/10/09 02:22:02;;;;;;;;;;;;;;;11.53;70.32;95623.59;5060724;28;20028;-75
2022/10/09 02:24:28;;;;;;;17.45;12.63;;;;;;;11.04;69.83;95548.25;5041269;28;20006;-75
2022/10/09 02:26:54;;;;;;;25.05;14.10;;;;;;;11.53;70.13;95636.88;5040362;28;20043;-75
2022/10/09 02:29:20;;;;;;;27.30;12.82;;;;;;;11.40;70.38;95616.19;5041942;28;20024;-75
2022/10/09 02:31:45;;;;;;;22.10;12.68;;;;;;;11.09;69.99;95564.16;5060607;28;20474;-74
2022/10/09 02:34:16;;;;;;;22.92;13.77;;;;;;;11.21;70.28;95600.00;5042125;28;20033;-75
2022/10/09 02:36:42;;;;;;;22.52;13.27;;;;;;;11.22;70.09;95593.63;5041395;28;20047;-74
2022/10/09 02:39:08;;;;;;;23.05;13.52;;;;;;;11.45;69.97;95645.38;5060368;28;20051;-75
2022/10/09 02:41:34;;;;;;;23.38;12.90;;;;;;;11.19;70.24;95607.44;5057660;28;20024;-74
2022/10/09 02:44:00;;;;;;;19.45;12.50;;;;;;;11.35;70.66;95626.81;5060254;28;20041;-74
2022/10/09 02:46:26;;;;;;;18.27;12.45;;;;;;;11.46;70.19;95635.56;5041832;28;20182;-76
2022/10/09 02:48:51;;;;;;;22.98;13.02;;;;;;;11.11;70.45;95588.59;5040439;28;20039;-74
2022/10/09 02:51:17;;;;;;;27.00;12.45;;;;;;;11.43;70.58;95638.75;5058980;28;20032;-74
2022/10/09 02:53:43;;;;;;;19.50;12.13;;;;;;;11.18;69.96;95599.75;5058474;28;20036;-75
2022/10/09 02:56:09;;;;;;;19.35;12.02;;;;;;;11.02;70.54;95567.09;5048803;28;20036;-74
2022/10/09 02:58:35;;;;;;;20.42;11.93;;;;;;;11.29;69.94;95616.47;5075004;28;20092;-75
2022/10/09 03:01:01;;;;;;;25.35;12.88;;;;;;;11.43;70.55;95638.75;5075506;28;20716;-75
2022/10/09 03:03:26;;;;;;;23.73;13.73;;;;;;;11.09;70.33;95583.53;5041703;28;20051;-75
2022/10/09 03:06:03;;;;;;;36.22;12.98;;;;;;;11.48;70.44;95639.53;5040398;28;20110;-75
2022/10/09 03:08:29;;;;;;;18.05;12.35;;;;;;;11.34;70.06;95621.75;5075500;28;20078;-75
2022/10/09 03:10:55;;;;;;;24.48;13.48;;;;;;;11.48;70.14;95644.84;5058639;28;20035;-75
2022/10/09 03:13:20;;;;;;;24.15;13.77;;;;;;;11.37;70.18;95623.88;5043598;28;20546;-74
2022/10/09 03:15:46;;;;;;;21.90;13.00;;;;;;;11.50;69.62;95648.03;5044540;28;20364;-75
2022/10/09 03:18:11;;;;;;;19.90;12.77;;;;;;;11.48;70.03;95642.19;5066843;28;20039;-75
2022/10/09 03:20:37;;;;;;;27.88;13.48;;;;;;;11.41;69.74;95627.59;5056491;28;20036;-74
2022/10/09 03:23:02;;;;;;;24.67;13.10;;;;;;;11.36;69.88;95615.13;5044695;28;20033;-75
2022/10/09 03:25:28;;;;;;;25.35;12.88;;;;;;;11.51;69.75;95646.19;5044528;28;20048;-74
2022/10/09 03:27:54;;;;;;;24.10;11.93;;;;;;;11.48;69.65;95658.13;5063314;28;20036;-75
2022/10/09 03:30:19;;;;;;;22.58;11.18;;;;;;;11.56;69.93;95657.59;5062391;28;20052;-76
2022/10/09 03:32:45;;;;;;;23.92;12.52;;;;;;;11.05;69.76;95577.19;5045710;28;20051;-75
2022/10/09 03:35:10;;;;;;;17.15;10.73;;;;;;;11.12;69.22;95593.66;5063973;28;20075;-75
2022/10/09 03:37:35;;;;;;;23.10;11.30;;;;;;;11.35;69.53;95616.19;5063740;28;20036;-75
2022/10/09 03:40:01;;;;;;;17.80;11.13;;;;;;;11.16;69.78;95601.84;5063092;28;20040;-75
2022/10/09 03:42:26;;;;;;;25.27;11.85;;;;;;;11.26;69.64;95615.13;5061499;28;20055;-75
2022/10/09 03:44:52;;;;;;;21.60;11.75;;;;;;;11.23;69.53;95620.97;5045869;28;20143;-75
2022/10/09 03:47:17;;;;;;;18.63;11.55;;;;;;;10.93;70.01;95586.47;5055475;28;20101;-75
2022/10/09 03:49:43;;;;;;;21.80;12.27;;;;;;;11.37;69.90;95658.38;5064774;28;20101;-75
2022/10/09 03:52:08;;;;;;;16.27;11.10;;;;;;;10.52;69.27;95529.97;5046986;28;20040;-75
2022/10/09 03:54:34;;;;;;;21.95;10.73;;;;;;;11.32;70.32;95659.19;5044935;28;20047;-75
2022/10/09 03:56:59;;;;;;;16.98;10.23;;;;;;;11.12;69.83;95635.31;5065206;28;20254;-75
2022/10/09 03:59:25;;;;;;;18.92;11.40;;;;;;;10.69;69.57;95576.38;5065001;28;20494;-75
2022/10/09 04:01:50;;;;;;;18.80;10.70;;;;;;;10.34;69.89;95525.94;5064600;28;20043;-75
2022/10/09 04:04:16;;;;;;;18.00;11.15;;;;;;;10.68;69.81;95588.03;5045679;28;20047;-75
2022/10/09 04:06:41;;;;;;;15.32;11.13;;;;;;;10.97;70.14;95654.69;5063973;28;20165;-76
2022/10/09 04:09:07;;;;;;;23.65;11.00;;;;;;;11.12;70.13;95667.16;5044870;28;20041;-74
2022/10/09 04:11:32;;;;;;;18.98;11.35;;;;;;;10.91;70.23;95641.69;5054220;28;20041;-74
2022/10/09 04:13:58;;;;;;;21.60;11.15;;;;;;;11.02;70.28;95670.59;5058234;28;20043;-74
2022/10/09 04:16:23;;;;;;;18.73;10.85;;;;;;;10.99;69.81;95665.81;5057400;28;20117;-77
2022/10/09 04:18:49;;;;;;;21.33;11.07;;;;;;;10.62;70.32;95615.63;5077453;28;20035;-74
2022/10/09 04:21:14;;;;;;;20.58;10.68;;;;;;;10.57;70.60;95609.50;5045213;28;20127;-75
2022/10/09 04:23:40;;;;;;;22.08;10.95;;;;;;;10.80;70.68;95652.25;5064148;28;20122;-75
2022/10/09 04:26:05;;;;;;;18.70;11.52;;;;;;;10.47;71.10;95598.88;5045299;28;20617;-75
2022/10/09 04:28:31;;;;;;;15.25;10.77;;;;;;;10.97;70.45;95669.81;5063838;28;20038;-75
2022/10/09 04:30:58;;;;;;;20.27;11.20;;;;;;;10.54;71.19;95604.72;5063949;28;20036;-75
2022/10/09 04:33:25;;;;;;;23.80;11.38;;;;;;;10.77;71.20;95639.50;5064840;28;20114;-75
2022/10/09 04:35:52;;;;;;;18.77;11.02;;;;;;;11.01;71.26;95681.47;5045789;28;20045;-75
2022/10/09 04:38:19;;;;;;;16.55;11.38;;;;;;;10.98;71.16;95669.56;5065282;28;20040;-75
2022/10/09 04:40:54;;;;;;;19.20;11.05;;;;;;;10.38;70.60;95594.09;5064862;28;20033;-75
2022/10/09 04:43:20;;;;;;;18.27;11.18;;;;;;;10.43;70.72;95591.47;5045151;28;20028;-75
2022/10/09 04:45:45;;;;;;;16.85;11.48;;;;;;;10.73;71.27;95646.41;5041070;28;20414;-75
2022/10/09 04:48:11;;;;;;;21.10;12.05;;;;;;;10.50;70.82;95608.97;5063116;28;20036;-75
2022/10/09 04:50:39;;;;;;;21.35;11.63;;;;;;;10.61;70.63;95623.81;5045251;28;20061;-75
2022/10/09 04:53:05;;;;;;;17.35;10.40;;;;;;;11.01;71.06;95690.25;5048030;28;20032;-77
2022/10/09 04:55:30;;;;;;;21.23;11.52;;;;;;;10.72;70.95;95644.81;5048474;28;20575;-75
2022/10/09 04:57:55;;;;;;;20.60;11.50;;;;;;;10.62;71.22;95617.47;5046838;28;20039;-75
2022/10/09 05:00:21;;;;;;;17.77;11.30;;;;;;;10.58;70.90;95613.75;5046634;28;20028;-75
2022/10/09 05:02:46;;;;;;;20.10;11.07;;;;;;;10.40;70.32;95572.63;5065602;28;20032;-74
2022/10/09 05:05:12;;;;;;;25.02;11.75;;;;;;;11.11;71.28;95698.22;5065859;28;20220;-75
2022/10/09 05:07:37;;;;;;;23.60;11.43;;;;;;;11.13;70.95;95696.09;5047114;28;20039;-75
2022/10/09 05:10:04;;;;;;;18.65;11.88;;;;;;;10.52;70.49;95598.91;5066202;28;20039;-75
2022/10/09 05:12:30;;;;;;;22.70;12.60;;;;;;;10.77;70.27;95647.47;5064680;28;20788;-74
2022/10/09 05:14:55;;;;;;;24.90;12.40;;;;;;;11.09;70.45;95687.06;5065925;28;20047;-75
2022/10/09 05:17:20;;;;;;;23.00;12.30;;;;;;;11.18;70.49;95700.63;5064461;28;20402;-75
2022/10/09 05:19:46;;;;;;;29.63;13.20;;;;;;;10.77;70.71;95633.41;5065534;28;20037;-75
2022/10/09 05:22:11;;;;;;;31.65;14.35;;;;;;;10.91;71.06;95660.25;5047302;28;20081;-75
2022/10/09 05:24:37;;;;;;;25.20;13.63;;;;;;;11.18;70.92;95706.72;5065307;28;20347;-75
2022/10/09 05:27:02;;;;;;;20.42;13.25;;;;;;;10.93;71.06;95655.47;5064511;28;20048;-75
2022/10/09 05:29:27;;;;;;;33.30;13.95;;;;;;;11.04;70.84;95673.81;5065322;28;20047;-75
2022/10/09 05:31:53;;;;;;;23.48;14.68;;;;;;;11.17;70.85;95694.50;5065867;28;20024;-75
2022/10/09 05:34:19;;;;;;;35.47;15.30;;;;;;;10.93;70.33;95655.47;5066076;28;20063;-74
2022/10/09 05:36:44;;;;;;;35.20;13.88;;;;;;;11.32;70.98;95714.16;5041581;28;20118;-74
2022/10/09 05:39:10;;;;;;;29.85;13.93;;;;;;;11.15;70.72;95693.16;5068303;28;20144;-75
2022/10/09 05:41:35;;;;;;;26.95;15.27;;;;;;;11.07;70.37;95669.81;5050247;28;20122;-75
2022/10/09 05:44:01;;;;;;;20.75;13.23;;;;;;;11.16;70.30;95684.16;5066925;28;20031;-75
2022/10/09 05:46:29;;;;;;;28.55;14.10;;;;;;;11.44;70.11;95715.50;5065900;28;20058;-75
2022/10/09 05:48:57;;;;;;;25.98;12.90;;;;;;;11.51;69.88;95716.03;5064982;28;20029;-74
2022/10/09 05:51:29;;;;;;;19.75;12.98;;;;;;;11.34;69.92;95680.97;5065262;28;20582;-74
2022/10/09 05:53:56;;;;;;;21.10;14.20;;;;;;;11.59;69.85;95718.16;5047546;28;20036;-75
2022/10/09 05:56:21;;;;;;;23.60;12.77;;;;;;;11.64;70.06;95716.56;5065072;28;20040;-75
2022/10/09 05:58:52;;;;;;;24.67;12.73;;;;;;;11.43;69.83;95683.91;5048169;28;20044;-74
2022/10/09 06:01:18;;;;;;;28.23;11.95;;;;;;;11.73;69.50;95726.41;5043749;28;20040;-75
2022/10/09 06:03:52;;;;;;;23.10;11.63;;;;;;;11.77;69.03;95732.00;5049429;28;20165;-75
2022/10/09 06:06:20;;;;;;;22.38;11.38;;;;;;;11.69;68.07;95719.22;5049825;28;20044;-75
2022/10/09 06:08:46;;;;;;;21.70;11.10;;;;;;;11.72;67.78;95716.03;5050180;28;20036;-75
2022/10/09 06:11:13;;;;;;;24.38;11.25;;;;;;;11.81;67.55;95739.19;5045311;28;20405;-75
2022/10/09 06:13:39;;;;;;;22.75;11.05;;;;;;;11.63;67.22;95720.28;5068564;28;20508;-75
2022/10/09 06:16:04;;;;;;;18.13;10.40;;;;;;;11.39;67.69;95693.44;5047544;28;20547;-75
2022/10/09 06:18:30;;;;;;;22.95;10.70;;;;;;;11.79;67.93;95746.63;5047164;28;20035;-75
2022/10/09 06:20:58;;;;;;;23.08;11.75;;;;;;;11.70;68.69;95755.34;5047846;28;20048;-74
2022/10/09 06:23:24;;;;;;;21.48;11.13;;;;;;;11.71;68.48;95741.81;5065796;28;20036;-75
2022/10/09 06:26:13;;;;;;;20.85;12.68;;;;;;;11.56;68.24;95701.97;5045746;28;20042;-75
2022/10/09 06:28:39;;;;;;;17.33;10.95;;;;;;;11.92;68.13;95759.34;5064416;28;20060;-75
2022/10/09 06:31:08;;;;;;;25.58;11.48;;;;;;;11.84;68.89;95759.88;5058928;28;20045;-75
2022/10/09 06:33:35;;;;;;;23.08;13.48;;;;;;;11.60;69.35;95719.75;5064447;28;20047;-75
2022/10/09 06:36:03;;;;;;;24.92;13.40;;;;;;;11.98;68.81;95771.56;5064097;28;20136;-75
2022/10/09 06:38:28;;;;;;;23.08;12.57;;;;;;;12.12;68.66;95765.72;5064440;28;20469;-75
2022/10/09 06:40:54;;;;;;;25.95;13.55;;;;;;;11.26;68.93;95636.38;5064433;28;20032;-76
2022/10/09 06:43:20;;;;;;;24.25;13.50;;;;;;;12.17;68.79;95769.16;5045376;28;20545;-75
2022/10/09 06:45:45;;;;;;;32.58;14.20;;;;;;;12.21;68.72;95770.19;5047969;28;20031;-75
2022/10/09 06:48:10;;;;;;;26.55;13.82;;;;;;;12.24;68.75;95776.84;5065826;28;20032;-76
2022/10/09 06:50:36;;;;;;;39.55;13.75;;;;;;;12.22;69.46;95781.63;5046827;28;20641;-75
2022/10/09 06:53:04;;;;;;;30.45;13.98;;;;;;;12.23;69.30;95772.59;5047981;28;20044;-75
2022/10/09 06:55:29;;;;;;;26.50;13.90;;;;;;;12.13;68.99;95754.03;5048231;28;20028;-75
2022/10/09 06:57:55;;;;;;;24.17;12.95;;;;;;;12.14;68.97;95734.31;5047426;28;20032;-76
2022/10/09 07:00:20;;;;;;;28.35;13.15;;;;;;;12.30;68.95;95767.78;5047658;28;20083;-76
2022/10/09 07:02:46;;;;;;;22.70;13.38;;;;;;;11.93;69.14;95707.78;5048537;28;20029;-76
2022/10/09 07:05:11;;;;;;;27.20;13.60;;;;;;;12.42;68.54;95780.81;5075390;28;20039;-75
2022/10/09 07:07:40;;;;;;;19.58;11.98;;;;;;;12.26;69.08;95753.47;5075885;28;20035;-75
2022/10/09 07:10:06;;;;;;;23.70;12.10;;;;;;;11.76;69.02;95679.91;5050073;28;20099;-75
2022/10/09 07:12:36;;;;;;;35.25;13.38;;;;;;;12.21;69.32;95748.94;5067437;28;20058;-75
2022/10/09 07:15:04;;;;;;;26.05;11.93;;;;;;;12.23;68.77;95741.50;5049619;28;20143;-75
2022/10/09 07:17:30;;;;;;;26.35;13.00;;;;;;;12.53;68.67;95771.72;5067748;28;20032;-75
2022/10/09 07:19:55;;;;;;;31.33;13.65;;;;;;;12.54;68.51;95774.13;5057118;28;20047;-75
2022/10/09 07:22:21;;;;;;;23.08;13.32;;;;;;;12.19;68.29;95723.69;5066379;28;20072;-76
2022/10/09 07:24:47;;;;;;;26.80;13.25;;;;;;;11.81;69.26;95677.25;5066515;28;20494;-75
2022/10/09 07:27:13;;;;;;;29.05;14.52;;;;;;;12.12;69.05;95739.94;5066984;28;20081;-75
2022/10/09 07:29:38;;;;;;;34.03;15.57;;;;;;;12.50;68.80;95788.25;5048783;28;20802;-75
2022/10/09 07:32:04;;;;;;;30.33;16.52;;;;;;;12.32;68.34;95741.75;5049025;28;20016;-75
2022/10/09 07:34:29;;;;;;;29.42;15.50;;;;;;;12.68;68.39;95793.75;5066943;28;20498;-75
2022/10/09 07:36:55;;;;;;;33.33;16.73;;;;;;;12.33;68.44;95725.50;5047871;28;20066;-75
2022/10/09 07:39:21;;;;;;;25.95;16.08;;;;;;;12.58;68.57;95772.53;5065834;28;20139;-75
2022/10/09 07:41:49;;;;;;;40.33;16.30;;;;;;;12.83;67.90;95792.91;5066361;28;20066;-75
2022/10/09 07:44:14;;;;;;;31.63;17.65;;;;;;;12.54;67.99;95747.53;5066558;28;20383;-75
2022/10/09 07:46:40;;;;;;;30.05;16.95;;;;;;;12.81;68.00;95771.13;5065397;28;20044;-75
2022/10/09 07:49:05;;;;;;;29.20;16.25;;;;;;;12.85;67.85;95793.44;5065588;28;20054;-75
2022/10/09 07:51:31;;;;;;;29.65;16.83;;;;;;;12.80;67.33;95755.41;5065839;28;20043;-75
2022/10/09 07:53:57;;;;;;;23.95;15.93;;;;;;;12.49;67.53;95712.97;5048010;28;20114;-76
2022/10/09 07:56:26;;;;;;;26.75;15.27;;;;;;;12.80;67.94;95758.06;5044983;28;20034;-75
2022/10/09 07:58:54;;;;;;;26.08;15.15;;;;;;;13.03;67.73;95784.84;5064029;28;20133;-75
2022/10/09 08:01:21;;;;;;;28.83;15.52;;;;;;;13.15;67.29;95787.22;5046752;28;20466;-75
2022/10/09 08:03:48;;;;;;;27.00;15.45;;;;;;;12.98;67.43;95765.44;5046527;28;20040;-75
2022/10/09 08:06:14;;;;;;;30.90;16.40;;;;;;;13.13;67.52;95770.69;5046672;28;20032;-75
2022/10/09 08:08:40;;;;;;;22.65;15.95;;;;;;;13.31;67.33;95780.72;5065700;28;20036;-75
2022/10/09 08:11:14;;;;;;;27.73;15.93;;;;;;;13.20;67.38;95749.13;5047195;28;20770;-75
2022/10/09 08:13:41;;;;;;;27.95;15.30;;;;;;;13.46;67.31;95782.50;5065029;28;20039;-75
2022/10/09 08:16:07;;;;;;;26.17;14.65;;;;;;;13.58;67.09;95785.59;5066470;28;20514;-75
2022/10/09 08:18:33;;;;;;;25.80;13.57;;;;;;;13.39;66.64;95747.38;5066518;28;20149;-76
2022/10/09 08:21:01;;;;;;;24.60;14.20;;;;;;;13.58;66.77;95777.63;5066174;28;20032;-75
2022/10/09 08:23:26;;;;;;;27.08;15.05;;;;;;;13.58;66.78;95750.19;5047831;28;20031;-75
2022/10/09 08:25:52;;;;;;;25.38;14.32;;;;;;;13.90;66.44;95769.13;5066274;28;20865;-76
2022/10/09 08:28:17;;;;;;;27.58;15.48;;;;;;;14.11;66.09;95775.09;5048587;28;20028;-75
2022/10/09 08:30:43;;;;;;;26.33;14.38;;;;;;;14.07;65.74;95747.38;5048278;28;20035;-76
2022/10/09 08:33:08;;;;;;;24.38;14.48;;;;;;;14.00;65.22;95721.03;5062306;28;20028;-75
2022/10/09 08:35:34;;;;;;;20.35;13.27;;;;;;;14.39;64.96;95755.63;5049652;28;20040;-75
2022/10/09 08:37:59;;;;;;;30.60;13.82;;;;;;;14.49;64.52;95746.72;5050470;28;20040;-76
2022/10/09 08:40:52;;;;;;;19.10;11.95;;;;;;;14.65;63.94;95753.44;5050635;28;20032;-75
2022/10/09 08:43:30;;;;;;;21.08;11.80;;;;;;;14.83;64.10;95774.06;5069763;28;20055;-76
2022/10/09 08:46:00;;;;;;;22.67;11.63;;;;;;;14.59;63.58;95707.34;5050673;28;20036;-76
2022/10/09 08:48:27;;;;;;;22.95;12.27;;;;;;;14.75;63.87;95723.97;5051329;28;20413;-75
2022/10/09 08:50:56;;;;;;;20.75;11.30;;;;;;;15.02;63.46;95763.44;5069125;28;20132;-76
2022/10/09 08:53:47;;;;;;;24.00;10.65;;;;;;;15.16;62.93;95753.63;5050887;28;20150;-76
2022/10/09 08:56:14;;;;;;;16.15;9.23;;;;;;;15.12;62.89;95727.75;5067742;28;20123;-76
2022/10/09 08:58:41;;;;;;;15.05;9.05;;;;;;;15.22;62.33;95730.31;5067756;28;20036;-76
2022/10/09 09:01:14;;;;;;;24.65;8.60;;;;;;;15.30;62.56;95735.78;5049666;28;20028;-76
2022/10/09 09:03:49;;;;;;;13.85;9.00;;;;;;;15.50;62.61;95740.03;5069876;28;20040;-77
2022/10/09 09:06:26;;;;;;;16.48;8.48;;;;;;;15.57;62.80;95739.69;5069003;28;20556;-77
2022/10/09 09:08:57;;;;;;;14.32;7.90;;;;;;;15.55;62.74;95742.69;5044716;28;20514;-75
2022/10/09 09:12:00;;;;;;;11.43;7.95;;;;;;;15.61;61.40;95740.72;5050956;28;20044;-76
2022/10/09 09:14:50;;;;;;;11.35;7.55;;;;;;;15.73;61.03;95741.03;5066986;28;20044;-76
2022/10/09 09:17:41;;;;;;;14.10;6.80;;;;;;;15.75;61.27;95730.84;5069991;28;20028;-76
2022/10/09 09:20:34;;;;;;;13.68;6.63;;;;;;;15.77;60.06;95734.03;5051530;28;20039;-75
2022/10/09 09:23:00;;;;;;;12.52;6.63;;;;;;;15.53;60.05;95672.66;5049129;28;20032;-76
2022/10/09 09:25:33;;;;;;;12.75;7.32;;;;;;;15.46;59.86;95661.53;5068473;28;20047;-76
2022/10/09 09:28:09;;;;;;;12.13;7.03;;;;;;;15.67;59.94;95686.06;5049878;28;20028;-76
2022/10/09 09:30:46;;;;;;;13.80;6.75;;;;;;;15.77;59.77;95689.38;5051169;28;20121;-75
2022/10/09 09:33:30;;;;;;;17.90;6.55;;;;;;;15.83;59.87;95676.69;5070822;28;20414;-76
2022/10/09 09:36:22;;;;;;;18.58;7.45;;;;;;;16.36;59.45;95732.47;5071208;28;20036;-76
2022/10/09 09:38:49;;;;;;;11.82;6.35;;;;;;;16.47;58.66;95734.69;5070867;28;20027;-76
2022/10/09 09:41:14;;;;;;;10.25;5.47;;;;;;;16.19;58.05;95680.31;5052432;28;20532;-76
2022/10/09 09:43:40;;;;;;;12.23;5.63;;;;;;;16.66;57.46;95720.41;5050749;28;20036;-76
2022/10/09 09:46:13;;;;;;;9.85;5.38;;;;;;;16.46;56.75;95687.56;5068425;28;20023;-76
2022/10/09 09:48:46;;;;;;;9.45;5.10;;;;;;;16.67;55.96;95679.94;5050371;28;20391;-76
2022/10/09 09:51:23;;;;;;;9.27;5.90;;;;;;;17.53;53.80;95688.75;5049665;28;20074;-76
2022/10/09 09:53:53;;;;;;;10.55;5.20;;;;;;;18.51;51.30;95748.56;5068779;28;20557;-76
2022/10/09 09:56:19;;;;;;;14.68;4.93;;;;;;;19.36;48.81;95727.63;5063285;28;20038;-76
2022/10/09 09:58:52;;;;;;;12.43;5.05;;;;;;;20.53;46.84;95727.31;5051567;28;20035;-76
2022/10/09 10:01:27;;;;;;;12.38;5.10;;;;;;;21.34;44.71;95716.28;5052108;28;20076;-76
2022/10/09 10:03:58;;;;;;;9.18;5.40;;;;;;;21.90;43.22;95698.66;5070066;28;20032;-76
2022/10/09 10:06:28;;;;;;;11.30;4.80;;;;;;;22.65;41.09;95734.44;5070246;28;20032;-76
2022/10/09 10:08:57;;;;;;;17.65;5.53;;;;;;;22.44;39.76;95678.88;5050944;28;20109;-76
2022/10/09 10:11:23;;;;;;;9.45;4.10;;;;;;;23.41;38.78;95730.25;5055566;28;20364;-76
2022/10/09 10:13:49;;;;;;;9.77;5.03;;;;;;;23.68;37.91;95680.00;5068518;28;20032;-76
2022/10/09 10:16:24;;;;;;;11.10;4.80;;;;;;;24.04;37.60;95693.38;5049502;28;20684;-77
2022/10/09 10:18:49;;;;;;;10.18;5.28;;;;;;;24.34;36.99;95723.63;5050411;28;20041;-76
2022/10/09 10:21:17;;;;;;;11.20;4.75;;;;;;;24.52;37.18;95726.78;5069988;28;20035;-77
2022/10/09 10:23:54;;;;;;;12.32;4.57;;;;;;;25.10;35.59;95721.66;5071754;28;20383;-77
2022/10/09 10:26:20;;;;;;;10.00;4.50;;;;;;;25.47;34.79;95722.09;5072004;28;21049;-77
2022/10/09 10:29:13;;;;;;;7.03;3.78;;;;;;;25.76;34.72;95727.00;5054001;28;20071;-76
2022/10/09 10:32:09;;;;;;;11.45;4.63;;;;;;;25.84;33.74;95720.56;5054481;28;20028;-77
2022/10/09 10:34:43;;;;;;;10.40;4.53;;;;;;;25.20;35.05;95691.22;5072123;28;20037;-77
2022/10/09 10:37:11;;;;;;;9.48;5.07;;;;;;;25.54;34.19;95712.16;5059056;28;20051;-77
2022/10/09 10:39:55;;;;;;;12.30;4.20;;;;;;;25.84;33.21;95714.34;5073717;28;20039;-77
2022/10/09 10:42:24;;;;;;;8.15;3.50;;;;;;;25.83;32.22;95712.75;5057404;28;20109;-77
2022/10/09 10:45:06;;;;;;;7.20;4.55;;;;;;;24.29;32.87;95604.63;5055315;28;20039;-77
2022/10/09 10:47:38;;;;;;;11.95;4.07;;;;;;;24.79;33.86;95695.31;5053977;28;20213;-77
2022/10/09 10:50:08;;;;;;;9.15;4.07;;;;;;;24.97;33.84;95686.47;5071753;28;20052;-77
2022/10/09 10:52:53;;;;;;;12.65;3.63;;;;;;;24.62;34.47;95707.28;5054394;28;20399;-77
2022/10/09 10:55:49;;;;;;;7.65;4.00;;;;;;;24.90;34.85;95699.88;5057594;28;20041;-77
2022/10/09 10:58:20;;;;;;;10.60;4.40;;;;;;;24.49;35.42;95684.88;5072270;28;20524;-77
2022/10/09 11:01:12;;;;;;;;;;;;;;;24.74;34.59;95679.28;5046936;28;20081;-77
2022/10/09 11:03:55;;;;;;;15.32;4.35;;;;;;;24.88;34.88;95676.91;5050897;28;20026;-77
2022/10/09 11:06:28;;;;;;;12.45;4.57;;;;;;;24.81;34.56;95647.69;5070401;28;20039;-77
2022/10/09 11:09:12;;;;;;;9.40;4.10;;;;;;;25.21;34.29;95671.09;5051176;28;20056;-77
2022/10/09 11:11:51;;;;;;;7.20;4.18;;;;;;;25.06;33.15;95569.59;5043532;28;20032;-77
2022/10/09 11:14:38;;;;;;;9.73;3.88;;;;;;;25.76;32.41;95637.34;5069256;28;20509;-77
2022/10/09 11:17:05;;;;;;;11.00;4.13;;;;;;;26.22;32.53;95661.88;5050141;28;20035;-77
2022/10/09 11:19:42;;;;;;;7.75;3.58;;;;;;;26.51;31.08;95653.84;5050701;28;20039;-77
2022/10/09 11:22:38;;;;;;;12.20;4.30;;;;;;;26.06;32.37;95630.16;5069377;28;20024;-77
2022/10/09 11:25:29;;;;;;;11.35;3.97;;;;;;;26.46;31.97;95645.22;5068627;28;20029;-77
2022/10/09 11:28:01;;;;;;;10.57;4.20;;;;;;;26.46;31.92;95637.84;5056984;28;20697;-77
2022/10/09 11:30:31;;;;;;;5.95;3.58;;;;;;;26.60;31.52;95647.38;5050455;28;20040;-77